sensor_id;sensor_type;location;lat;lon;timestamp;temperature;humidity
68248;SHT30;55064;49.636;12.164;2022-10-16T00:01:28;15.18;95.45
68248;SHT30;55064;49.636;12.164;2022-10-16T00:03:55;15.13;95.75
68248;SHT30;55064;49.636;12.164;2022-10-16T00:06:24;15.14;96.00
68248;SHT30;55064;49.636;12.164;2022-10-16T00:08:50;15.09;96.26
68248;SHT30;55064;49.636;12.164;2022-10-16T00:11:27;15.07;96.36
68248;SHT30;55064;49.636;12.164;2022-10-16T00:13:57;15.04;96.47
68248;SHT30;55064;49.636;12.164;2022-10-16T00:16:23;15.04;96.62
68248;SHT30;55064;49.636;12.164;2022-10-16T00:18:48;15.06;96.54
68248;SHT30;55064;49.636;12.164;2022-10-16T00:21:17;15.03;96.66
68248;SHT30;55064;49.636;12.164;2022-10-16T00:23:45;15.04;96.28
68248;SHT30;55064;49.636;12.164;2022-10-16T00:26:14;15.03;96.38
68248;SHT30;55064;49.636;12.164;2022-10-16T00:28:40;15.00;96.31
68248;SHT30;55064;49.636;12.164;2022-10-16T00:31:10;15.02;96.41
68248;SHT30;55064;49.636;12.164;2022-10-16T00:33:39;15.03;96.25
68248;SHT30;55064;49.636;12.164;2022-10-16T00:36:06;15.03;96.30
68248;SHT30;55064;49.636;12.164;2022-10-16T00:38:34;15.06;96.16
68248;SHT30;55064;49.636;12.164;2022-10-16T00:41:00;15.06;96.22
68248;SHT30;55064;49.636;12.164;2022-10-16T00:48:53;15.04;96.00
68248;SHT30;55064;49.636;12.164;2022-10-16T00:51:28;15.06;95.82
68248;SHT30;55064;49.636;12.164;2022-10-16T00:54:06;15.09;95.71
68248;SHT30;55064;49.636;12.164;2022-10-16T00:56:32;15.06;96.07
68248;SHT30;55064;49.636;12.164;2022-10-16T00:59:01;14.99;96.12
68248;SHT30;55064;49.636;12.164;2022-10-16T01:01:28;14.98;96.24
68248;SHT30;55064;49.636;12.164;2022-10-16T01:03:56;14.99;96.42
68248;SHT30;55064;49.636;12.164;2022-10-16T01:14:23;14.88;97.09
68248;SHT30;55064;49.636;12.164;2022-10-16T01:17:05;14.88;97.19
68248;SHT30;55064;49.636;12.164;2022-10-16T01:22:17;14.86;96.92
68248;SHT30;55064;49.636;12.164;2022-10-16T01:24:47;14.85;97.14
68248;SHT30;55064;49.636;12.164;2022-10-16T01:27:27;14.82;97.31
68248;SHT30;55064;49.636;12.164;2022-10-16T01:29:58;14.84;97.27
68248;SHT30;55064;49.636;12.164;2022-10-16T01:32:37;14.81;97.28
68248;SHT30;55064;49.636;12.164;2022-10-16T01:35:14;14.76;97.44
68248;SHT30;55064;49.636;12.164;2022-10-16T01:38:15;14.75;97.45
68248;SHT30;55064;49.636;12.164;2022-10-16T01:40:50;14.74;97.05
68248;SHT30;55064;49.636;12.164;2022-10-16T01:43:22;14.79;96.82
68248;SHT30;55064;49.636;12.164;2022-10-16T01:45:49;14.82;96.68
68248;SHT30;55064;49.636;12.164;2022-10-16T01:48:19;14.82;96.55
68248;SHT30;55064;49.636;12.164;2022-10-16T01:50:54;14.86;96.44
68248;SHT30;55064;49.636;12.164;2022-10-16T01:53:22;14.86;96.32
68248;SHT30;55064;49.636;12.164;2022-10-16T01:55:52;14.85;96.23
68248;SHT30;55064;49.636;12.164;2022-10-16T01:58:20;14.88;96.11
68248;SHT30;55064;49.636;12.164;2022-10-16T02:00:47;14.82;96.13
68248;SHT30;55064;49.636;12.164;2022-10-16T02:03:18;14.79;96.24
68248;SHT30;55064;49.636;12.164;2022-10-16T02:05:52;14.85;96.18
68248;SHT30;55064;49.636;12.164;2022-10-16T02:08:18;14.84;96.05
68248;SHT30;55064;49.636;12.164;2022-10-16T02:10:44;14.84;95.77
68248;SHT30;55064;49.636;12.164;2022-10-16T02:15:41;14.85;95.72
68248;SHT30;55064;49.636;12.164;2022-10-16T02:18:09;14.86;95.59
68248;SHT30;55064;49.636;12.164;2022-10-16T02:26:09;14.82;95.66
68248;SHT30;55064;49.636;12.164;2022-10-16T02:28:51;14.85;95.49
68248;SHT30;55064;49.636;12.164;2022-10-16T02:31:26;14.81;95.48
68248;SHT30;55064;49.636;12.164;2022-10-16T02:33:54;14.84;95.46
68248;SHT30;55064;49.636;12.164;2022-10-16T02:36:21;14.86;95.26
68248;SHT30;55064;49.636;12.164;2022-10-16T02:38:47;14.89;95.25
68248;SHT30;55064;49.636;12.164;2022-10-16T02:41:15;14.85;95.32
68248;SHT30;55064;49.636;12.164;2022-10-16T02:43:40;14.76;95.68
68248;SHT30;55064;49.636;12.164;2022-10-16T02:46:07;14.79;95.68
68248;SHT30;55064;49.636;12.164;2022-10-16T02:48:32;14.72;95.89
68248;SHT30;55064;49.636;12.164;2022-10-16T02:50:58;14.74;96.17
68248;SHT30;55064;49.636;12.164;2022-10-16T02:53:26;14.72;96.19
68248;SHT30;55064;49.636;12.164;2022-10-16T02:55:51;14.69;96.33
68248;SHT30;55064;49.636;12.164;2022-10-16T02:58:16;14.68;96.53
68248;SHT30;55064;49.636;12.164;2022-10-16T03:00:49;14.65;96.63
68248;SHT30;55064;49.636;12.164;2022-10-16T03:03:15;14.64;96.69
68248;SHT30;55064;49.636;12.164;2022-10-16T03:05:43;14.61;96.61
68248;SHT30;55064;49.636;12.164;2022-10-16T03:08:11;14.64;96.62
68248;SHT30;55064;49.636;12.164;2022-10-16T03:10:36;14.61;96.67
68248;SHT30;55064;49.636;12.164;2022-10-16T03:13:02;14.64;96.54
68248;SHT30;55064;49.636;12.164;2022-10-16T03:15:30;14.64;96.56
68248;SHT30;55064;49.636;12.164;2022-10-16T03:17:59;14.69;96.28
68248;SHT30;55064;49.636;12.164;2022-10-16T03:20:29;14.69;96.16
68248;SHT30;55064;49.636;12.164;2022-10-16T03:22:54;14.72;96.06
68248;SHT30;55064;49.636;12.164;2022-10-16T03:25:20;14.74;96.01
68248;SHT30;55064;49.636;12.164;2022-10-16T03:27:45;14.76;95.93
68248;SHT30;55064;49.636;12.164;2022-10-16T03:30:11;14.72;96.08
68248;SHT30;55064;49.636;12.164;2022-10-16T03:32:37;14.71;95.98
68248;SHT30;55064;49.636;12.164;2022-10-16T03:35:02;14.76;95.76
68248;SHT30;55064;49.636;12.164;2022-10-16T03:37:27;14.78;95.70
68248;SHT30;55064;49.636;12.164;2022-10-16T03:39:53;14.78;95.64
68248;SHT30;55064;49.636;12.164;2022-10-16T03:42:18;14.84;95.50
68248;SHT30;55064;49.636;12.164;2022-10-16T03:44:43;14.78;95.66
68248;SHT30;55064;49.636;12.164;2022-10-16T03:47:11;14.78;95.67
68248;SHT30;55064;49.636;12.164;2022-10-16T03:49:39;14.82;95.72
68248;SHT30;55064;49.636;12.164;2022-10-16T03:52:04;14.75;95.93
68248;SHT30;55064;49.636;12.164;2022-10-16T03:54:32;14.76;95.70
68248;SHT30;55064;49.636;12.164;2022-10-16T03:56:58;14.76;95.80
68248;SHT30;55064;49.636;12.164;2022-10-16T03:59:25;14.76;95.88
68248;SHT30;55064;49.636;12.164;2022-10-16T04:01:51;14.75;95.99
68248;SHT30;55064;49.636;12.164;2022-10-16T04:04:16;14.71;96.07
68248;SHT30;55064;49.636;12.164;2022-10-16T04:06:42;14.74;95.93
68248;SHT30;55064;49.636;12.164;2022-10-16T04:09:09;14.75;95.72
68248;SHT30;55064;49.636;12.164;2022-10-16T04:11:34;14.76;95.55
68248;SHT30;55064;49.636;12.164;2022-10-16T04:14:02;14.76;95.79
68248;SHT30;55064;49.636;12.164;2022-10-16T04:16:28;14.76;95.81
68248;SHT30;55064;49.636;12.164;2022-10-16T04:18:55;14.76;95.59
68248;SHT30;55064;49.636;12.164;2022-10-16T04:21:21;14.75;95.60
68248;SHT30;55064;49.636;12.164;2022-10-16T04:23:49;14.72;95.77
68248;SHT30;55064;49.636;12.164;2022-10-16T04:26:15;14.71;95.88
68248;SHT30;55064;49.636;12.164;2022-10-16T04:28:40;14.79;95.70
68248;SHT30;55064;49.636;12.164;2022-10-16T04:31:06;14.75;95.73
68248;SHT30;55064;49.636;12.164;2022-10-16T04:33:34;14.71;95.92
68248;SHT30;55064;49.636;12.164;2022-10-16T04:36:00;14.72;95.74
68248;SHT30;55064;49.636;12.164;2022-10-16T04:38:28;14.72;95.83
68248;SHT30;55064;49.636;12.164;2022-10-16T04:40:54;14.72;95.73
68248;SHT30;55064;49.636;12.164;2022-10-16T04:43:22;14.71;95.91
68248;SHT30;55064;49.636;12.164;2022-10-16T04:45:47;14.72;95.78
68248;SHT30;55064;49.636;12.164;2022-10-16T04:48:17;14.69;95.93
68248;SHT30;55064;49.636;12.164;2022-10-16T04:50:45;14.68;95.83
68248;SHT30;55064;49.636;12.164;2022-10-16T04:53:16;14.67;96.07
68248;SHT30;55064;49.636;12.164;2022-10-16T04:55:41;14.63;96.21
68248;SHT30;55064;49.636;12.164;2022-10-16T04:58:07;14.63;96.30
68248;SHT30;55064;49.636;12.164;2022-10-16T05:00:33;14.63;96.33
68248;SHT30;55064;49.636;12.164;2022-10-16T05:03:01;14.63;96.25
68248;SHT30;55064;49.636;12.164;2022-10-16T05:05:29;14.67;95.99
68248;SHT30;55064;49.636;12.164;2022-10-16T05:07:54;14.63;96.05
68248;SHT30;55064;49.636;12.164;2022-10-16T05:10:22;14.61;96.21
68248;SHT30;55064;49.636;12.164;2022-10-16T05:12:51;14.63;96.26
68248;SHT30;55064;49.636;12.164;2022-10-16T05:15:21;14.64;96.00
68248;SHT30;55064;49.636;12.164;2022-10-16T05:17:52;14.60;96.08
68248;SHT30;55064;49.636;12.164;2022-10-16T05:20:18;14.68;95.88
68248;SHT30;55064;49.636;12.164;2022-10-16T05:22:45;14.67;95.91
68248;SHT30;55064;49.636;12.164;2022-10-16T05:25:11;14.67;95.78
68248;SHT30;55064;49.636;12.164;2022-10-16T05:27:36;14.64;95.76
68248;SHT30;55064;49.636;12.164;2022-10-16T05:30:04;14.61;95.84
68248;SHT30;55064;49.636;12.164;2022-10-16T05:32:32;14.64;95.57
68248;SHT30;55064;49.636;12.164;2022-10-16T05:34:58;14.64;95.23
68248;SHT30;55064;49.636;12.164;2022-10-16T05:37:27;14.72;94.95
68248;SHT30;55064;49.636;12.164;2022-10-16T05:39:52;14.69;95.18
68248;SHT30;55064;49.636;12.164;2022-10-16T05:42:18;14.67;95.32
68248;SHT30;55064;49.636;12.164;2022-10-16T05:44:44;14.68;95.25
68248;SHT30;55064;49.636;12.164;2022-10-16T05:47:09;14.65;95.44
68248;SHT30;55064;49.636;12.164;2022-10-16T05:49:38;14.60;95.44
68248;SHT30;55064;49.636;12.164;2022-10-16T05:52:03;14.58;95.47
68248;SHT30;55064;49.636;12.164;2022-10-16T05:54:31;14.58;95.36
68248;SHT30;55064;49.636;12.164;2022-10-16T05:56:57;14.60;95.11
68248;SHT30;55064;49.636;12.164;2022-10-16T05:59:27;14.56;95.73
68248;SHT30;55064;49.636;12.164;2022-10-16T06:01:57;14.58;95.83
68248;SHT30;55064;49.636;12.164;2022-10-16T06:04:24;14.54;95.96
68248;SHT30;55064;49.636;12.164;2022-10-16T06:06:49;14.58;96.07
68248;SHT30;55064;49.636;12.164;2022-10-16T06:09:14;14.52;96.11
68248;SHT30;55064;49.636;12.164;2022-10-16T06:11:42;14.54;96.40
68248;SHT30;55064;49.636;12.164;2022-10-16T06:14:08;14.51;96.51
68248;SHT30;55064;49.636;12.164;2022-10-16T06:16:37;14.49;96.63
68248;SHT30;55064;49.636;12.164;2022-10-16T06:19:07;14.48;96.82
68248;SHT30;55064;49.636;12.164;2022-10-16T06:21:34;14.45;96.89
68248;SHT30;55064;49.636;12.164;2022-10-16T06:24:00;14.45;96.95
68248;SHT30;55064;49.636;12.164;2022-10-16T06:26:30;14.49;96.90
68248;SHT30;55064;49.636;12.164;2022-10-16T06:28:58;14.48;96.70
68248;SHT30;55064;49.636;12.164;2022-10-16T06:31:24;14.48;96.84
68248;SHT30;55064;49.636;12.164;2022-10-16T06:33:55;14.49;96.88
68248;SHT30;55064;49.636;12.164;2022-10-16T06:36:24;14.54;96.55
68248;SHT30;55064;49.636;12.164;2022-10-16T06:38:50;14.57;96.88
68248;SHT30;55064;49.636;12.164;2022-10-16T06:41:18;14.52;96.94
68248;SHT30;55064;49.636;12.164;2022-10-16T06:43:44;14.61;96.64
68248;SHT30;55064;49.636;12.164;2022-10-16T06:46:19;14.67;96.26
68248;SHT30;55064;49.636;12.164;2022-10-16T06:48:45;14.71;96.22
68248;SHT30;55064;49.636;12.164;2022-10-16T06:51:14;14.79;95.38
68248;SHT30;55064;49.636;12.164;2022-10-16T06:53:45;14.78;95.21
68248;SHT30;55064;49.636;12.164;2022-10-16T06:56:21;14.84;94.93
68248;SHT30;55064;49.636;12.164;2022-10-16T06:58:48;14.91;94.77
68248;SHT30;55064;49.636;12.164;2022-10-16T07:01:20;14.98;94.51
68248;SHT30;55064;49.636;12.164;2022-10-16T07:03:48;14.93;94.33
68248;SHT30;55064;49.636;12.164;2022-10-16T07:06:16;14.98;94.16
68248;SHT30;55064;49.636;12.164;2022-10-16T07:08:50;15.00;94.09
68248;SHT30;55064;49.636;12.164;2022-10-16T07:11:20;15.14;93.63
68248;SHT30;55064;49.636;12.164;2022-10-16T07:13:50;15.29;92.97
68248;SHT30;55064;49.636;12.164;2022-10-16T07:16:19;15.44;92.79
68248;SHT30;55064;49.636;12.164;2022-10-16T07:18:48;15.46;92.62
68248;SHT30;55064;49.636;12.164;2022-10-16T07:21:19;15.55;92.17
68248;SHT30;55064;49.636;12.164;2022-10-16T07:23:49;15.58;91.84
68248;SHT30;55064;49.636;12.164;2022-10-16T07:26:17;15.61;91.48
68248;SHT30;55064;49.636;12.164;2022-10-16T07:28:43;15.64;91.54
68248;SHT30;55064;49.636;12.164;2022-10-16T07:31:13;15.72;91.27
68248;SHT30;55064;49.636;12.164;2022-10-16T07:33:42;15.71;90.83
68248;SHT30;55064;49.636;12.164;2022-10-16T07:36:12;15.72;90.98
68248;SHT30;55064;49.636;12.164;2022-10-16T07:38:37;15.68;91.04
68248;SHT30;55064;49.636;12.164;2022-10-16T07:41:09;15.75;91.27
68248;SHT30;55064;49.636;12.164;2022-10-16T07:43:37;15.85;90.91
68248;SHT30;55064;49.636;12.164;2022-10-16T07:46:02;16.02;90.10
68248;SHT30;55064;49.636;12.164;2022-10-16T07:48:32;16.24;90.55
68248;SHT30;55064;49.636;12.164;2022-10-16T07:51:03;16.34;89.68
68248;SHT30;55064;49.636;12.164;2022-10-16T07:53:29;16.39;88.72
68248;SHT30;55064;49.636;12.164;2022-10-16T07:56:03;16.27;89.25
68248;SHT30;55064;49.636;12.164;2022-10-16T07:58:35;16.39;88.93
68248;SHT30;55064;49.636;12.164;2022-10-16T08:01:11;16.47;89.84
68248;SHT30;55064;49.636;12.164;2022-10-16T08:03:37;16.22;88.42
68248;SHT30;55064;49.636;12.164;2022-10-16T08:06:05;16.17;89.34
68248;SHT30;55064;49.636;12.164;2022-10-16T08:08:30;16.24;89.15
68248;SHT30;55064;49.636;12.164;2022-10-16T08:10:59;16.29;89.36
68248;SHT30;55064;49.636;12.164;2022-10-16T08:13:26;16.30;88.89
68248;SHT30;55064;49.636;12.164;2022-10-16T08:15:53;16.32;89.04
68248;SHT30;55064;49.636;12.164;2022-10-16T08:18:21;16.34;88.82
68248;SHT30;55064;49.636;12.164;2022-10-16T08:20:59;16.40;89.43
68248;SHT30;55064;49.636;12.164;2022-10-16T08:23:29;16.40;89.02
68248;SHT30;55064;49.636;12.164;2022-10-16T08:26:02;16.46;88.76
68248;SHT30;55064;49.636;12.164;2022-10-16T08:28:28;16.39;88.62
68248;SHT30;55064;49.636;12.164;2022-10-16T08:30:56;16.34;88.56
68248;SHT30;55064;49.636;12.164;2022-10-16T08:33:29;16.27;89.15
68248;SHT30;55064;49.636;12.164;2022-10-16T08:35:56;16.27;89.46
68248;SHT30;55064;49.636;12.164;2022-10-16T08:38:22;16.32;89.23
68248;SHT30;55064;49.636;12.164;2022-10-16T08:40:49;16.40;89.01
68248;SHT30;55064;49.636;12.164;2022-10-16T08:43:37;16.56;89.13
68248;SHT30;55064;49.636;12.164;2022-10-16T08:46:25;16.68;88.89
68248;SHT30;55064;49.636;12.164;2022-10-16T08:48:57;16.92;88.44
68248;SHT30;55064;49.636;12.164;2022-10-16T08:53:58;17.04;87.46
68248;SHT30;55064;49.636;12.164;2022-10-16T08:56:25;16.99;87.48
68248;SHT30;55064;49.636;12.164;2022-10-16T08:58:54;17.11;86.56
68248;SHT30;55064;49.636;12.164;2022-10-16T09:01:22;17.04;86.53
68248;SHT30;55064;49.636;12.164;2022-10-16T09:06:40;17.19;86.26
68248;SHT30;55064;49.636;12.164;2022-10-16T09:12:00;17.16;85.87
68248;SHT30;55064;49.636;12.164;2022-10-16T09:20:18;17.16;85.82
68248;SHT30;55064;49.636;12.164;2022-10-16T09:22:47;17.20;85.98
68248;SHT30;55064;49.636;12.164;2022-10-16T09:25:16;17.08;85.64
68248;SHT30;55064;49.636;12.164;2022-10-16T09:27:48;17.05;86.36
68248;SHT30;55064;49.636;12.164;2022-10-16T09:30:16;17.06;86.16
68248;SHT30;55064;49.636;12.164;2022-10-16T09:32:46;17.12;86.23
68248;SHT30;55064;49.636;12.164;2022-10-16T09:35:31;17.22;86.25
68248;SHT30;55064;49.636;12.164;2022-10-16T09:37:57;17.42;86.08
68248;SHT30;55064;49.636;12.164;2022-10-16T09:40:33;17.89;84.19
68248;SHT30;55064;49.636;12.164;2022-10-16T09:48:51;18.33;80.92
68248;SHT30;55064;49.636;12.164;2022-10-16T09:51:34;18.64;80.34
68248;SHT30;55064;49.636;12.164;2022-10-16T09:54:22;18.94;80.20
68248;SHT30;55064;49.636;12.164;2022-10-16T09:56:48;19.09;78.79
68248;SHT30;55064;49.636;12.164;2022-10-16T09:59:21;19.28;77.50
68248;SHT30;55064;49.636;12.164;2022-10-16T10:01:52;19.01;78.02
68248;SHT30;55064;49.636;12.164;2022-10-16T10:04:38;19.29;78.53
68248;SHT30;55064;49.636;12.164;2022-10-16T10:07:04;19.57;77.20
68248;SHT30;55064;49.636;12.164;2022-10-16T10:09:37;19.64;76.30
68248;SHT30;55064;49.636;12.164;2022-10-16T10:12:23;19.35;76.40
68248;SHT30;55064;49.636;12.164;2022-10-16T10:14:51;19.56;76.16
68248;SHT30;55064;49.636;12.164;2022-10-16T10:17:21;19.54;75.70
68248;SHT30;55064;49.636;12.164;2022-10-16T10:19:51;19.50;75.80
68248;SHT30;55064;49.636;12.164;2022-10-16T10:24:44;18.94;76.75
68248;SHT30;55064;49.636;12.164;2022-10-16T10:27:18;19.32;75.83
68248;SHT30;55064;49.636;12.164;2022-10-16T10:45:20;19.64;75.16
68248;SHT30;55064;49.636;12.164;2022-10-16T10:51:16;19.42;77.58
68248;SHT30;55064;49.636;12.164;2022-10-16T11:01:17;19.11;79.20
68248;SHT30;55064;49.636;12.164;2022-10-16T11:04:19;19.09;79.41
68248;SHT30;55064;49.636;12.164;2022-10-16T11:06:55;19.07;79.79
68248;SHT30;55064;49.636;12.164;2022-10-16T11:12:01;19.28;79.61
68248;SHT30;55064;49.636;12.164;2022-10-16T11:14:47;19.42;79.31
68248;SHT30;55064;49.636;12.164;2022-10-16T11:17:39;19.52;79.05
68248;SHT30;55064;49.636;12.164;2022-10-16T11:22:49;19.74;78.53
68248;SHT30;55064;49.636;12.164;2022-10-16T11:27:50;20.19;77.12
68248;SHT30;55064;49.636;12.164;2022-10-16T11:30:27;20.42;76.64
68248;SHT30;55064;49.636;12.164;2022-10-16T11:35:38;20.60;75.56
68248;SHT30;55064;49.636;12.164;2022-10-16T11:38:12;20.62;73.94
68248;SHT30;55064;49.636;12.164;2022-10-16T11:40:42;20.52;74.99
68248;SHT30;55064;49.636;12.164;2022-10-16T11:43:17;20.63;74.93
68248;SHT30;55064;49.636;12.164;2022-10-16T11:45:58;20.66;74.61
68248;SHT30;55064;49.636;12.164;2022-10-16T11:56:07;21.10;75.03
68248;SHT30;55064;49.636;12.164;2022-10-16T12:01:44;20.59;75.20
68248;SHT30;55064;49.636;12.164;2022-10-16T12:07:07;20.50;75.21
68248;SHT30;55064;49.636;12.164;2022-10-16T12:09:39;20.57;74.58
68248;SHT30;55064;49.636;12.164;2022-10-16T12:12:22;20.73;74.37
68248;SHT30;55064;49.636;12.164;2022-10-16T12:17:47;20.55;73.81
68248;SHT30;55064;49.636;12.164;2022-10-16T12:22:49;20.65;74.04
68248;SHT30;55064;49.636;12.164;2022-10-16T12:25:42;20.79;74.01
68248;SHT30;55064;49.636;12.164;2022-10-16T12:30:43;21.04;72.60
68248;SHT30;55064;49.636;12.164;2022-10-16T12:33:34;21.41;71.58
68248;SHT30;55064;49.636;12.164;2022-10-16T12:36:10;21.59;71.18
68248;SHT30;55064;49.636;12.164;2022-10-16T12:38:46;21.35;71.04
68248;SHT30;55064;49.636;12.164;2022-10-16T12:41:28;21.24;71.78
68248;SHT30;55064;49.636;12.164;2022-10-16T12:43:54;20.90;72.81
68248;SHT30;55064;49.636;12.164;2022-10-16T12:49:19;20.81;72.70
68248;SHT30;55064;49.636;12.164;2022-10-16T12:51:46;20.93;72.55
68248;SHT30;55064;49.636;12.164;2022-10-16T12:54:16;20.97;72.43
68248;SHT30;55064;49.636;12.164;2022-10-16T12:59:18;20.77;73.27
68248;SHT30;55064;49.636;12.164;2022-10-16T13:01:54;21.07;72.58
68248;SHT30;55064;49.636;12.164;2022-10-16T13:15:11;21.38;71.94
68248;SHT30;55064;49.636;12.164;2022-10-16T13:25:49;21.00;71.49
68248;SHT30;55064;49.636;12.164;2022-10-16T13:28:21;21.01;71.84
68248;SHT30;55064;49.636;12.164;2022-10-16T13:30:55;21.08;72.12
68248;SHT30;55064;49.636;12.164;2022-10-16T13:33:27;21.12;71.97
68248;SHT30;55064;49.636;12.164;2022-10-16T13:35:59;21.00;72.03
68248;SHT30;55064;49.636;12.164;2022-10-16T13:38:33;20.91;72.42
68248;SHT30;55064;49.636;12.164;2022-10-16T13:41:13;21.12;72.28
68248;SHT30;55064;49.636;12.164;2022-10-16T13:46:14;21.11;71.82
68248;SHT30;55064;49.636;12.164;2022-10-16T13:48:39;20.97;71.68
68248;SHT30;55064;49.636;12.164;2022-10-16T13:51:14;21.04;72.15
68248;SHT30;55064;49.636;12.164;2022-10-16T13:53:42;21.18;72.11
68248;SHT30;55064;49.636;12.164;2022-10-16T13:56:17;21.32;71.70
68248;SHT30;55064;49.636;12.164;2022-10-16T13:58:58;21.35;71.60
68248;SHT30;55064;49.636;12.164;2022-10-16T14:01:30;21.12;71.96
68248;SHT30;55064;49.636;12.164;2022-10-16T14:04:05;21.29;72.38
68248;SHT30;55064;49.636;12.164;2022-10-16T14:06:35;21.12;72.61
68248;SHT30;55064;49.636;12.164;2022-10-16T14:09:35;21.02;73.22
68248;SHT30;55064;49.636;12.164;2022-10-16T14:12:06;20.93;74.14
68248;SHT30;55064;49.636;12.164;2022-10-16T14:14:43;21.05;73.85
68248;SHT30;55064;49.636;12.164;2022-10-16T14:17:18;21.05;74.10
68248;SHT30;55064;49.636;12.164;2022-10-16T14:19:50;20.85;74.37
68248;SHT30;55064;49.636;12.164;2022-10-16T14:22:34;20.80;74.69
68248;SHT30;55064;49.636;12.164;2022-10-16T14:27:57;20.83;74.56
68248;SHT30;55064;49.636;12.164;2022-10-16T14:30:24;20.83;75.04
68248;SHT30;55064;49.636;12.164;2022-10-16T14:35:36;20.90;75.10
68248;SHT30;55064;49.636;12.164;2022-10-16T14:38:04;20.95;74.72
68248;SHT30;55064;49.636;12.164;2022-10-16T14:40:36;20.97;74.74
68248;SHT30;55064;49.636;12.164;2022-10-16T14:43:03;20.95;75.05
68248;SHT30;55064;49.636;12.164;2022-10-16T14:45:34;20.87;74.55
68248;SHT30;55064;49.636;12.164;2022-10-16T14:48:02;20.77;74.58
68248;SHT30;55064;49.636;12.164;2022-10-16T14:50:29;20.72;75.24
68248;SHT30;55064;49.636;12.164;2022-10-16T14:52:55;20.74;75.04
68248;SHT30;55064;49.636;12.164;2022-10-16T14:55:20;20.65;75.49
68248;SHT30;55064;49.636;12.164;2022-10-16T14:57:47;20.81;75.69
68248;SHT30;55064;49.636;12.164;2022-10-16T15:02:41;20.70;75.82
68248;SHT30;55064;49.636;12.164;2022-10-16T15:07:41;20.60;76.35
68248;SHT30;55064;49.636;12.164;2022-10-16T15:10:13;20.50;76.84
68248;SHT30;55064;49.636;12.164;2022-10-16T15:12:39;20.56;76.79
68248;SHT30;55064;49.636;12.164;2022-10-16T15:17:52;20.63;77.20
68248;SHT30;55064;49.636;12.164;2022-10-16T15:20:23;20.55;77.44
68248;SHT30;55064;49.636;12.164;2022-10-16T15:22:51;20.65;77.32
68248;SHT30;55064;49.636;12.164;2022-10-16T15:27:50;20.43;77.46
68248;SHT30;55064;49.636;12.164;2022-10-16T15:30:16;20.36;78.01
68248;SHT30;55064;49.636;12.164;2022-10-16T15:32:41;20.38;77.96
68248;SHT30;55064;49.636;12.164;2022-10-16T15:35:10;20.42;77.76
68248;SHT30;55064;49.636;12.164;2022-10-16T15:37:40;20.28;78.18
68248;SHT30;55064;49.636;12.164;2022-10-16T15:40:09;20.18;78.67
68248;SHT30;55064;49.636;12.164;2022-10-16T15:42:37;20.07;79.10
68248;SHT30;55064;49.636;12.164;2022-10-16T15:45:02;19.98;79.25
68248;SHT30;55064;49.636;12.164;2022-10-16T15:47:29;19.95;79.85
68248;SHT30;55064;49.636;12.164;2022-10-16T15:49:54;19.85;80.03
68248;SHT30;55064;49.636;12.164;2022-10-16T15:52:20;19.78;80.79
68248;SHT30;55064;49.636;12.164;2022-10-16T15:54:48;19.70;81.04
68248;SHT30;55064;49.636;12.164;2022-10-16T15:57:13;19.50;81.83
68248;SHT30;55064;49.636;12.164;2022-10-16T15:59:43;19.32;82.74
68248;SHT30;55064;49.636;12.164;2022-10-16T16:02:11;19.22;83.02
68248;SHT30;55064;49.636;12.164;2022-10-16T16:04:41;19.18;83.01
68248;SHT30;55064;49.636;12.164;2022-10-16T16:07:09;19.09;83.51
68248;SHT30;55064;49.636;12.164;2022-10-16T16:09:37;18.97;83.96
68248;SHT30;55064;49.636;12.164;2022-10-16T16:12:02;18.83;84.46
68248;SHT30;55064;49.636;12.164;2022-10-16T16:14:28;18.68;85.11
68248;SHT30;55064;49.636;12.164;2022-10-16T16:16:54;18.57;85.45
68248;SHT30;55064;49.636;12.164;2022-10-16T16:19:20;18.53;85.58
68248;SHT30;55064;49.636;12.164;2022-10-16T16:21:49;18.46;85.89
68248;SHT30;55064;49.636;12.164;2022-10-16T16:24:15;18.28;86.46
68248;SHT30;55064;49.636;12.164;2022-10-16T16:26:41;18.08;86.84
68248;SHT30;55064;49.636;12.164;2022-10-16T16:29:13;18.06;86.88
68248;SHT30;55064;49.636;12.164;2022-10-16T16:31:39;17.99;87.13
68248;SHT30;55064;49.636;12.164;2022-10-16T16:34:05;17.80;87.84
68248;SHT30;55064;49.636;12.164;2022-10-16T16:36:31;17.80;87.84
68248;SHT30;55064;49.636;12.164;2022-10-16T16:39:00;17.77;87.97
68248;SHT30;55064;49.636;12.164;2022-10-16T16:41:29;17.71;88.09
68248;SHT30;55064;49.636;12.164;2022-10-16T16:44:01;17.63;88.40
68248;SHT30;55064;49.636;12.164;2022-10-16T16:46:27;17.51;88.80
68248;SHT30;55064;49.636;12.164;2022-10-16T16:48:55;17.57;88.82
68248;SHT30;55064;49.636;12.164;2022-10-16T16:51:22;17.47;88.98
68248;SHT30;55064;49.636;12.164;2022-10-16T16:53:49;17.47;89.05
68248;SHT30;55064;49.636;12.164;2022-10-16T16:56:15;17.47;88.87
68248;SHT30;55064;49.636;12.164;2022-10-16T16:58:48;17.40;89.17
68248;SHT30;55064;49.636;12.164;2022-10-16T17:01:14;17.29;89.45
68248;SHT30;55064;49.636;12.164;2022-10-16T17:03:45;17.16;90.10
68248;SHT30;55064;49.636;12.164;2022-10-16T17:06:17;17.09;90.25
68248;SHT30;55064;49.636;12.164;2022-10-16T17:08:45;17.05;90.42
68248;SHT30;55064;49.636;12.164;2022-10-16T17:11:18;17.05;90.44
68248;SHT30;55064;49.636;12.164;2022-10-16T17:13:46;17.04;90.39
68248;SHT30;55064;49.636;12.164;2022-10-16T17:16:15;17.08;90.17
68248;SHT30;55064;49.636;12.164;2022-10-16T17:18:40;17.06;90.17
68248;SHT30;55064;49.636;12.164;2022-10-16T17:21:08;17.06;90.16
68248;SHT30;55064;49.636;12.164;2022-10-16T17:23:37;16.98;90.58
68248;SHT30;55064;49.636;12.164;2022-10-16T17:28:33;16.81;91.41
68248;SHT30;55064;49.636;12.164;2022-10-16T17:31:15;16.82;91.40
68248;SHT30;55064;49.636;12.164;2022-10-16T17:33:44;16.74;91.74
68248;SHT30;55064;49.636;12.164;2022-10-16T17:36:12;16.77;91.63
68248;SHT30;55064;49.636;12.164;2022-10-16T17:38:39;16.71;91.70
68248;SHT30;55064;49.636;12.164;2022-10-16T17:43:43;16.68;92.04
68248;SHT30;55064;49.636;12.164;2022-10-16T17:46:11;16.70;91.91
68248;SHT30;55064;49.636;12.164;2022-10-16T17:48:45;16.61;92.17
68248;SHT30;55064;49.636;12.164;2022-10-16T17:51:15;16.63;92.29
68248;SHT30;55064;49.636;12.164;2022-10-16T17:53:41;16.56;92.59
68248;SHT30;55064;49.636;12.164;2022-10-16T17:56:11;16.57;92.47
68248;SHT30;55064;49.636;12.164;2022-10-16T17:58:40;16.54;92.50
68248;SHT30;55064;49.636;12.164;2022-10-16T18:01:21;16.53;92.65
68248;SHT30;55064;49.636;12.164;2022-10-16T18:03:49;16.57;92.56